sensor_id;sensor_type;location;lat;lon;timestamp;P1;durP1;ratioP1;P2;durP2;ratioP2
20443;SDS011;10381;53.730;10.010;2024-02-14T00:03:31;27.10;;;4.87;;
20443;SDS011;10381;53.730;10.010;2024-02-14T00:07:31;11.13;;;5.03;;
20443;SDS011;10381;53.730;10.010;2024-02-14T00:11:31;4.93;;;4.40;;
20443;SDS011;10381;53.730;10.010;2024-02-14T00:15:32;9.20;;;4.45;;
20443;SDS011;10381;53.730;10.010;2024-02-14T00:19:33;10.98;;;4.85;;
20443;SDS011;10381;53.730;10.010;2024-02-14T00:23:33;10.50;;;4.77;;
20443;SDS011;10381;53.730;10.010;2024-02-14T00:27:33;14.27;;;3.97;;
20443;SDS011;10381;53.730;10.010;2024-02-14T00:31:34;5.07;;;3.83;;
20443;SDS011;10381;53.730;10.010;2024-02-14T00:35:34;8.43;;;3.17;;
20443;SDS011;10381;53.730;10.010;2024-02-14T00:39:34;4.93;;;3.50;;
20443;SDS011;10381;53.730;10.010;2024-02-14T00:43:35;6.57;;;3.92;;
20443;SDS011;10381;53.730;10.010;2024-02-14T00:47:36;4.22;;;3.40;;
20443;SDS011;10381;53.730;10.010;2024-02-14T00:51:36;7.65;;;4.03;;
20443;SDS011;10381;53.730;10.010;2024-02-14T00:55:40;6.55;;;4.03;;
20443;SDS011;10381;53.730;10.010;2024-02-14T00:59:40;12.40;;;4.78;;
20443;SDS011;10381;53.730;10.010;2024-02-14T01:03:40;8.07;;;4.90;;
20443;SDS011;10381;53.730;10.010;2024-02-14T01:07:41;11.63;;;5.38;;
20443;SDS011;10381;53.730;10.010;2024-02-14T01:11:41;5.90;;;4.50;;
20443;SDS011;10381;53.730;10.010;2024-02-14T01:15:41;7.77;;;4.30;;
20443;SDS011;10381;53.730;10.010;2024-02-14T01:19:41;12.50;;;4.10;;
20443;SDS011;10381;53.730;10.010;2024-02-14T01:23:42;5.80;;;4.13;;
20443;SDS011;10381;53.730;10.010;2024-02-14T01:27:42;4.77;;;3.97;;
20443;SDS011;10381;53.730;10.010;2024-02-14T01:31:42;4.75;;;4.28;;
20443;SDS011;10381;53.730;10.010;2024-02-14T01:35:43;5.87;;;4.63;;
20443;SDS011;10381;53.730;10.010;2024-02-14T01:39:43;7.53;;;4.45;;
20443;SDS011;10381;53.730;10.010;2024-02-14T01:43:43;5.63;;;4.37;;
20443;SDS011;10381;53.730;10.010;2024-02-14T01:47:44;7.80;;;4.50;;
20443;SDS011;10381;53.730;10.010;2024-02-14T01:51:44;6.33;;;5.53;;
20443;SDS011;10381;53.730;10.010;2024-02-14T01:55:46;7.43;;;5.90;;
20443;SDS011;10381;53.730;10.010;2024-02-14T01:59:47;17.48;;;11.25;;
20443;SDS011;10381;53.730;10.010;2024-02-14T02:03:49;14.27;;;12.80;;
20443;SDS011;10381;53.730;10.010;2024-02-14T02:07:50;20.07;;;18.27;;
20443;SDS011;10381;53.730;10.010;2024-02-14T02:11:51;24.48;;;22.15;;
20443;SDS011;10381;53.730;10.010;2024-02-14T02:15:55;25.95;;;23.30;;
20443;SDS011;10381;53.730;10.010;2024-02-14T02:19:56;31.65;;;28.60;;
20443;SDS011;10381;53.730;10.010;2024-02-14T02:23:57;34.78;;;31.08;;
20443;SDS011;10381;53.730;10.010;2024-02-14T02:27:58;31.57;;;28.77;;
20443;SDS011;10381;53.730;10.010;2024-02-14T02:31:58;34.20;;;30.85;;
20443;SDS011;10381;53.730;10.010;2024-02-14T02:35:58;32.33;;;29.20;;
20443;SDS011;10381;53.730;10.010;2024-02-14T02:39:59;31.70;;;28.77;;
20443;SDS011;10381;53.730;10.010;2024-02-14T02:43:59;31.30;;;28.03;;
20443;SDS011;10381;53.730;10.010;2024-02-14T02:48:01;33.88;;;30.45;;
20443;SDS011;10381;53.730;10.010;2024-02-14T02:52:02;31.95;;;28.88;;
20443;SDS011;10381;53.730;10.010;2024-02-14T02:56:03;30.45;;;27.55;;
20443;SDS011;10381;53.730;10.010;2024-02-14T03:00:04;31.40;;;28.08;;
20443;SDS011;10381;53.730;10.010;2024-02-14T03:04:07;27.58;;;24.92;;
20443;SDS011;10381;53.730;10.010;2024-02-14T03:08:08;27.83;;;24.95;;
20443;SDS011;10381;53.730;10.010;2024-02-14T03:12:09;26.98;;;24.60;;
20443;SDS011;10381;53.730;10.010;2024-02-14T03:16:10;26.27;;;23.98;;
20443;SDS011;10381;53.730;10.010;2024-02-14T03:20:11;27.63;;;24.95;;
20443;SDS011;10381;53.730;10.010;2024-02-14T03:24:15;28.02;;;25.27;;
20443;SDS011;10381;53.730;10.010;2024-02-14T03:28:15;27.03;;;24.33;;
20443;SDS011;10381;53.730;10.010;2024-02-14T03:32:15;31.40;;;25.15;;
20443;SDS011;10381;53.730;10.010;2024-02-14T03:36:16;26.33;;;23.80;;
20443;SDS011;10381;53.730;10.010;2024-02-14T03:40:16;27.50;;;23.53;;
20443;SDS011;10381;53.730;10.010;2024-02-14T03:44:16;25.40;;;23.00;;
20443;SDS011;10381;53.730;10.010;2024-02-14T03:48:17;25.67;;;23.00;;
20443;SDS011;10381;53.730;10.010;2024-02-14T03:52:17;25.35;;;22.33;;
20443;SDS011;10381;53.730;10.010;2024-02-14T03:56:17;23.83;;;21.53;;
20443;SDS011;10381;53.730;10.010;2024-02-14T04:00:18;25.38;;;22.83;;
20443;SDS011;10381;53.730;10.010;2024-02-14T04:04:19;23.10;;;20.70;;
20443;SDS011;10381;53.730;10.010;2024-02-14T04:08:19;23.40;;;21.08;;
20443;SDS011;10381;53.730;10.010;2024-02-14T04:12:19;22.83;;;20.63;;
20443;SDS011;10381;53.730;10.010;2024-02-14T04:16:20;25.10;;;22.63;;
20443;SDS011;10381;53.730;10.010;2024-02-14T04:20:21;24.48;;;22.15;;
20443;SDS011;10381;53.730;10.010;2024-02-14T04:24:21;24.10;;;21.30;;
20443;SDS011;10381;53.730;10.010;2024-02-14T04:28:21;32.70;;;22.47;;
20443;SDS011;10381;53.730;10.010;2024-02-14T04:32:22;25.40;;;22.60;;
20443;SDS011;10381;53.730;10.010;2024-02-14T04:36:22;30.67;;;23.05;;
20443;SDS011;10381;53.730;10.010;2024-02-14T04:40:23;24.75;;;22.35;;
20443;SDS011;10381;53.730;10.010;2024-02-14T04:44:23;24.25;;;21.73;;
20443;SDS011;10381;53.730;10.010;2024-02-14T04:48:24;23.95;;;20.95;;
20443;SDS011;10381;53.730;10.010;2024-02-14T04:52:26;21.50;;;19.40;;
20443;SDS011;10381;53.730;10.010;2024-02-14T04:56:27;20.35;;;18.45;;
20443;SDS011;10381;53.730;10.010;2024-02-14T05:00:27;23.75;;;19.67;;
20443;SDS011;10381;53.730;10.010;2024-02-14T05:04:27;23.23;;;20.83;;
20443;SDS011;10381;53.730;10.010;2024-02-14T05:08:28;26.13;;;20.27;;
20443;SDS011;10381;53.730;10.010;2024-02-14T05:12:28;22.40;;;19.30;;
20443;SDS011;10381;53.730;10.010;2024-02-14T05:16:28;23.03;;;20.73;;
20443;SDS011;10381;53.730;10.010;2024-02-14T05:20:28;22.20;;;20.00;;
20443;SDS011;10381;53.730;10.010;2024-02-14T05:24:29;28.42;;;19.55;;
20443;SDS011;10381;53.730;10.010;2024-02-14T05:28:30;26.65;;;20.73;;
20443;SDS011;10381;53.730;10.010;2024-02-14T05:32:34;21.77;;;19.52;;
20443;SDS011;10381;53.730;10.010;2024-02-14T05:36:34;24.70;;;20.88;;
20443;SDS011;10381;53.730;10.010;2024-02-14T05:40:35;28.37;;;20.07;;
20443;SDS011;10381;53.730;10.010;2024-02-14T05:44:39;22.15;;;19.83;;
20443;SDS011;10381;53.730;10.010;2024-02-14T05:48:40;22.83;;;20.25;;
20443;SDS011;10381;53.730;10.010;2024-02-14T05:52:40;20.60;;;18.63;;
20443;SDS011;10381;53.730;10.010;2024-02-14T05:56:41;23.90;;;18.95;;
20443;SDS011;10381;53.730;10.010;2024-02-14T06:00:41;20.98;;;18.98;;
20443;SDS011;10381;53.730;10.010;2024-02-14T06:04:41;24.70;;;20.10;;
20443;SDS011;10381;53.730;10.010;2024-02-14T06:08:42;28.13;;;18.95;;
20443;SDS011;10381;53.730;10.010;2024-02-14T06:12:43;21.98;;;19.63;;
20443;SDS011;10381;53.730;10.010;2024-02-14T06:16:44;24.25;;;19.15;;
20443;SDS011;10381;53.730;10.010;2024-02-14T06:20:44;21.97;;;19.67;;
20443;SDS011;10381;53.730;10.010;2024-02-14T06:24:45;26.15;;;21.45;;
20443;SDS011;10381;53.730;10.010;2024-02-14T06:28:48;23.27;;;20.60;;
20443;SDS011;10381;53.730;10.010;2024-02-14T06:32:54;22.30;;;20.20;;
20443;SDS011;10381;53.730;10.010;2024-02-14T06:36:54;22.48;;;20.13;;
20443;SDS011;10381;53.730;10.010;2024-02-14T06:40:55;26.67;;;20.70;;
20443;SDS011;10381;53.730;10.010;2024-02-14T06:44:55;22.87;;;20.43;;
20443;SDS011;10381;53.730;10.010;2024-02-14T06:48:55;23.02;;;20.60;;
20443;SDS011;10381;53.730;10.010;2024-02-14T06:52:56;24.25;;;21.40;;
20443;SDS011;10381;53.730;10.010;2024-02-14T06:57:00;25.77;;;22.45;;
20443;SDS011;10381;53.730;10.010;2024-02-14T07:01:01;25.27;;;21.90;;
20443;SDS011;10381;53.730;10.010;2024-02-14T07:05:01;27.15;;;22.90;;
20443;SDS011;10381;53.730;10.010;2024-02-14T07:09:02;32.88;;;23.52;;
20443;SDS011;10381;53.730;10.010;2024-02-14T07:13:02;26.48;;;23.77;;
20443;SDS011;10381;53.730;10.010;2024-02-14T07:17:03;25.83;;;23.13;;
20443;SDS011;10381;53.730;10.010;2024-02-14T07:21:03;33.40;;;25.02;;
20443;SDS011;10381;53.730;10.010;2024-02-14T07:25:05;28.88;;;26.00;;
20443;SDS011;10381;53.730;10.010;2024-02-14T07:29:07;26.70;;;23.92;;
20443;SDS011;10381;53.730;10.010;2024-02-14T07:33:08;28.55;;;25.52;;
20443;SDS011;10381;53.730;10.010;2024-02-14T07:37:09;28.48;;;24.67;;
20443;SDS011;10381;53.730;10.010;2024-02-14T07:41:09;37.30;;;27.48;;
20443;SDS011;10381;53.730;10.010;2024-02-14T07:45:11;29.80;;;26.43;;
20443;SDS011;10381;53.730;10.010;2024-02-14T07:49:11;27.77;;;24.85;;
20443;SDS011;10381;53.730;10.010;2024-02-14T07:53:11;33.55;;;25.65;;
20443;SDS011;10381;53.730;10.010;2024-02-14T07:57:13;28.52;;;25.67;;
20443;SDS011;10381;53.730;10.010;2024-02-14T08:01:13;26.65;;;23.88;;
20443;SDS011;10381;53.730;10.010;2024-02-14T08:05:13;33.87;;;25.07;;
20443;SDS011;10381;53.730;10.010;2024-02-14T08:09:14;33.87;;;28.77;;
20443;SDS011;10381;53.730;10.010;2024-02-14T08:13:14;37.53;;;27.70;;
20443;SDS011;10381;53.730;10.010;2024-02-14T08:17:16;32.78;;;29.15;;
20443;SDS011;10381;53.730;10.010;2024-02-14T08:21:16;32.43;;;29.23;;
20443;SDS011;10381;53.730;10.010;2024-02-14T08:25:16;34.17;;;27.50;;
20443;SDS011;10381;53.730;10.010;2024-02-14T08:29:17;31.20;;;28.00;;
20443;SDS011;10381;53.730;10.010;2024-02-14T08:33:18;33.15;;;29.27;;
20443;SDS011;10381;53.730;10.010;2024-02-14T08:37:18;32.53;;;29.03;;
20443;SDS011;10381;53.730;10.010;2024-02-14T08:41:19;32.92;;;29.48;;
20443;SDS011;10381;53.730;10.010;2024-02-14T08:45:19;35.50;;;30.43;;
20443;SDS011;10381;53.730;10.010;2024-02-14T08:49:19;35.20;;;31.60;;
20443;SDS011;10381;53.730;10.010;2024-02-14T08:53:20;35.75;;;31.95;;
20443;SDS011;10381;53.730;10.010;2024-02-14T08:57:21;36.03;;;30.10;;
20443;SDS011;10381;53.730;10.010;2024-02-14T09:01:23;35.95;;;31.38;;
20443;SDS011;10381;53.730;10.010;2024-02-14T09:05:23;37.30;;;33.37;;
20443;SDS011;10381;53.730;10.010;2024-02-14T09:09:26;47.25;;;32.33;;
20443;SDS011;10381;53.730;10.010;2024-02-14T09:13:27;35.75;;;32.03;;
20443;SDS011;10381;53.730;10.010;2024-02-14T09:17:27;36.22;;;32.08;;
20443;SDS011;10381;53.730;10.010;2024-02-14T09:21:27;40.57;;;32.53;;
20443;SDS011;10381;53.730;10.010;2024-02-14T09:25:28;37.05;;;32.10;;
20443;SDS011;10381;53.730;10.010;2024-02-14T09:29:28;40.23;;;31.83;;
20443;SDS011;10381;53.730;10.010;2024-02-14T09:33:29;35.97;;;32.20;;
20443;SDS011;10381;53.730;10.010;2024-02-14T09:37:30;37.70;;;33.75;;
20443;SDS011;10381;53.730;10.010;2024-02-14T09:41:36;35.20;;;31.60;;
20443;SDS011;10381;53.730;10.010;2024-02-14T09:45:40;36.25;;;32.75;;
20443;SDS011;10381;53.730;10.010;2024-02-14T09:49:42;37.95;;;31.20;;
20443;SDS011;10381;53.730;10.010;2024-02-14T09:53:43;36.80;;;31.67;;
20443;SDS011;10381;53.730;10.010;2024-02-14T09:57:44;34.45;;;31.05;;
20443;SDS011;10381;53.730;10.010;2024-02-14T10:01:48;42.17;;;35.47;;
20443;SDS011;10381;53.730;10.010;2024-02-14T10:05:50;34.83;;;31.33;;
20443;SDS011;10381;53.730;10.010;2024-02-14T10:09:52;32.65;;;29.40;;
20443;SDS011;10381;53.730;10.010;2024-02-14T10:13:53;32.10;;;28.80;;
20443;SDS011;10381;53.730;10.010;2024-02-14T10:18:00;31.48;;;28.20;;
20443;SDS011;10381;53.730;10.010;2024-02-14T10:22:01;32.67;;;27.77;;
20443;SDS011;10381;53.730;10.010;2024-02-14T10:26:05;35.38;;;31.17;;
20443;SDS011;10381;53.730;10.010;2024-02-14T10:30:06;33.72;;;30.42;;
20443;SDS011;10381;53.730;10.010;2024-02-14T10:34:10;36.45;;;31.58;;
20443;SDS011;10381;53.730;10.010;2024-02-14T10:38:12;34.20;;;30.42;;
20443;SDS011;10381;53.730;10.010;2024-02-14T10:42:12;33.53;;;30.40;;
20443;SDS011;10381;53.730;10.010;2024-02-14T10:46:20;35.75;;;32.33;;
20443;SDS011;10381;53.730;10.010;2024-02-14T10:50:22;38.08;;;34.35;;
20443;SDS011;10381;53.730;10.010;2024-02-14T10:54:25;36.33;;;32.90;;
20443;SDS011;10381;53.730;10.010;2024-02-14T10:58:26;35.15;;;31.60;;
20443;SDS011;10381;53.730;10.010;2024-02-14T11:02:29;34.90;;;31.30;;
20443;SDS011;10381;53.730;10.010;2024-02-14T11:06:30;35.38;;;31.77;;
20443;SDS011;10381;53.730;10.010;2024-02-14T11:10:31;32.33;;;29.10;;
20443;SDS011;10381;53.730;10.010;2024-02-14T11:14:37;31.23;;;28.13;;
20443;SDS011;10381;53.730;10.010;2024-02-14T11:18:42;29.55;;;26.75;;
20443;SDS011;10381;53.730;10.010;2024-02-14T11:23:00;31.13;;;27.97;;
20443;SDS011;10381;53.730;10.010;2024-02-14T11:27:11;28.70;;;25.90;;
20443;SDS011;10381;53.730;10.010;2024-02-14T11:31:12;28.85;;;26.05;;
20443;SDS011;10381;53.730;10.010;2024-02-14T11:35:17;29.08;;;26.27;;
20443;SDS011;10381;53.730;10.010;2024-02-14T11:39:17;28.38;;;25.67;;
20443;SDS011;10381;53.730;10.010;2024-02-14T11:43:18;27.90;;;25.10;;
20443;SDS011;10381;53.730;10.010;2024-02-14T11:47:22;28.42;;;25.55;;
20443;SDS011;10381;53.730;10.010;2024-02-14T11:51:23;26.20;;;23.88;;
20443;SDS011;10381;53.730;10.010;2024-02-14T11:55:27;25.92;;;23.33;;
20443;SDS011;10381;53.730;10.010;2024-02-14T11:59:30;27.27;;;23.00;;
20443;SDS011;10381;53.730;10.010;2024-02-14T12:03:30;30.13;;;26.53;;
20443;SDS011;10381;53.730;10.010;2024-02-14T12:07:31;27.85;;;25.08;;
20443;SDS011;10381;53.730;10.010;2024-02-14T12:11:32;28.90;;;25.00;;
20443;SDS011;10381;53.730;10.010;2024-02-14T12:15:39;35.05;;;29.08;;
20443;SDS011;10381;53.730;10.010;2024-02-14T12:19:41;24.58;;;22.00;;
20443;SDS011;10381;53.730;10.010;2024-02-14T12:23:41;24.80;;;22.40;;
20443;SDS011;10381;53.730;10.010;2024-02-14T12:27:41;25.50;;;22.33;;
20443;SDS011;10381;53.730;10.010;2024-02-14T12:31:42;26.30;;;22.37;;
20443;SDS011;10381;53.730;10.010;2024-02-14T12:35:46;25.50;;;22.13;;
20443;SDS011;10381;53.730;10.010;2024-02-14T12:39:48;27.30;;;24.50;;
20443;SDS011;10381;53.730;10.010;2024-02-14T12:43:48;29.00;;;25.83;;
20443;SDS011;10381;53.730;10.010;2024-02-14T12:47:49;27.38;;;23.75;;
20443;SDS011;10381;53.730;10.010;2024-02-14T12:51:49;28.23;;;25.30;;
20443;SDS011;10381;53.730;10.010;2024-02-14T12:55:50;28.80;;;26.13;;
20443;SDS011;10381;53.730;10.010;2024-02-14T12:59:50;30.02;;;27.15;;
20443;SDS011;10381;53.730;10.010;2024-02-14T13:03:51;28.10;;;25.50;;
20443;SDS011;10381;53.730;10.010;2024-02-14T13:07:51;30.17;;;27.27;;
20443;SDS011;10381;53.730;10.010;2024-02-14T13:11:51;28.97;;;26.40;;
20443;SDS011;10381;53.730;10.010;2024-02-14T13:15:52;28.58;;;25.63;;
20443;SDS011;10381;53.730;10.010;2024-02-14T13:19:52;28.47;;;25.87;;
20443;SDS011;10381;53.730;10.010;2024-02-14T13:23:53;27.48;;;25.08;;
20443;SDS011;10381;53.730;10.010;2024-02-14T13:27:53;28.17;;;25.52;;
20443;SDS011;10381;53.730;10.010;2024-02-14T13:31:55;27.65;;;25.15;;
20443;SDS011;10381;53.730;10.010;2024-02-14T13:35:55;28.50;;;25.90;;
20443;SDS011;10381;53.730;10.010;2024-02-14T13:39:55;32.03;;;27.33;;
20443;SDS011;10381;53.730;10.010;2024-02-14T13:43:56;31.42;;;28.13;;
20443;SDS011;10381;53.730;10.010;2024-02-14T13:48:02;30.87;;;27.60;;
20443;SDS011;10381;53.730;10.010;2024-02-14T13:52:04;29.42;;;26.70;;
20443;SDS011;10381;53.730;10.010;2024-02-14T13:56:05;28.75;;;26.08;;
20443;SDS011;10381;53.730;10.010;2024-02-14T14:00:07;29.38;;;26.35;;
20443;SDS011;10381;53.730;10.010;2024-02-14T14:04:11;26.95;;;24.25;;
20443;SDS011;10381;53.730;10.010;2024-02-14T14:08:12;27.33;;;24.67;;
20443;SDS011;10381;53.730;10.010;2024-02-14T14:12:13;26.83;;;23.83;;
20443;SDS011;10381;53.730;10.010;2024-02-14T14:16:14;26.00;;;23.23;;
20443;SDS011;10381;53.730;10.010;2024-02-14T14:20:14;27.85;;;23.30;;
20443;SDS011;10381;53.730;10.010;2024-02-14T14:24:15;22.80;;;20.50;;
20443;SDS011;10381;53.730;10.010;2024-02-14T14:28:15;26.00;;;20.52;;
20443;SDS011;10381;53.730;10.010;2024-02-14T14:32:17;25.90;;;19.95;;
20443;SDS011;10381;53.730;10.010;2024-02-14T14:36:18;34.35;;;20.92;;
20443;SDS011;10381;53.730;10.010;2024-02-14T14:40:19;24.45;;;18.35;;
20443;SDS011;10381;53.730;10.010;2024-02-14T14:44:21;31.50;;;19.27;;
20443;SDS011;10381;53.730;10.010;2024-02-14T14:48:21;20.10;;;17.95;;
20443;SDS011;10381;53.730;10.010;2024-02-14T14:52:22;31.13;;;18.65;;
20443;SDS011;10381;53.730;10.010;2024-02-14T14:56:22;23.67;;;16.13;;
20443;SDS011;10381;53.730;10.010;2024-02-14T15:00:25;32.80;;;16.10;;
20443;SDS011;10381;53.730;10.010;2024-02-14T15:04:26;25.95;;;17.52;;
20443;SDS011;10381;53.730;10.010;2024-02-14T15:08:27;22.33;;;17.13;;
20443;SDS011;10381;53.730;10.010;2024-02-14T15:12:27;24.60;;;16.60;;
20443;SDS011;10381;53.730;10.010;2024-02-14T15:16:28;27.75;;;17.67;;
20443;SDS011;10381;53.730;10.010;2024-02-14T15:20:29;26.50;;;18.73;;
20443;SDS011;10381;53.730;10.010;2024-02-14T15:24:30;31.73;;;20.10;;
20443;SDS011;10381;53.730;10.010;2024-02-14T15:28:30;23.60;;;18.58;;
20443;SDS011;10381;53.730;10.010;2024-02-14T15:32:30;24.67;;;19.47;;
20443;SDS011;10381;53.730;10.010;2024-02-14T15:36:49;25.38;;;20.70;;
20443;SDS011;10381;53.730;10.010;2024-02-14T15:40:50;25.57;;;19.67;;
20443;SDS011;10381;53.730;10.010;2024-02-14T15:45:00;28.80;;;20.20;;
20443;SDS011;10381;53.730;10.010;2024-02-14T15:49:00;34.38;;;20.95;;
20443;SDS011;10381;53.730;10.010;2024-02-14T15:53:01;35.93;;;22.53;;
20443;SDS011;10381;53.730;10.010;2024-02-14T15:57:02;34.95;;;22.30;;
20443;SDS011;10381;53.730;10.010;2024-02-14T16:01:03;35.05;;;23.33;;
20443;SDS011;10381;53.730;10.010;2024-02-14T16:05:03;32.25;;;21.88;;
20443;SDS011;10381;53.730;10.010;2024-02-14T16:09:04;41.25;;;23.48;;
20443;SDS011;10381;53.730;10.010;2024-02-14T16:13:04;36.10;;;22.65;;
20443;SDS011;10381;53.730;10.010;2024-02-14T16:17:05;36.70;;;23.33;;
20443;SDS011;10381;53.730;10.010;2024-02-14T16:21:05;34.93;;;23.63;;
20443;SDS011;10381;53.730;10.010;2024-02-14T16:25:07;41.80;;;23.15;;
20443;SDS011;10381;53.730;10.010;2024-02-14T16:29:08;39.00;;;25.42;;
20443;SDS011;10381;53.730;10.010;2024-02-14T16:33:09;41.53;;;25.40;;
20443;SDS011;10381;53.730;10.010;2024-02-14T16:37:09;34.10;;;24.27;;
20443;SDS011;10381;53.730;10.010;2024-02-14T16:41:14;37.80;;;24.95;;
20443;SDS011;10381;53.730;10.010;2024-02-14T16:45:16;40.28;;;25.92;;
20443;SDS011;10381;53.730;10.010;2024-02-14T16:49:16;40.60;;;24.17;;
20443;SDS011;10381;53.730;10.010;2024-02-14T16:53:17;37.25;;;25.17;;
20443;SDS011;10381;53.730;10.010;2024-02-14T16:57:17;54.07;;;26.60;;
20443;SDS011;10381;53.730;10.010;2024-02-14T17:01:18;43.43;;;26.33;;
20443;SDS011;10381;53.730;10.010;2024-02-14T17:05:18;41.50;;;26.90;;
20443;SDS011;10381;53.730;10.010;2024-02-14T17:09:18;42.57;;;27.13;;
20443;SDS011;10381;53.730;10.010;2024-02-14T17:13:18;46.47;;;27.80;;
20443;SDS011;10381;53.730;10.010;2024-02-14T17:17:19;52.03;;;28.70;;
20443;SDS011;10381;53.730;10.010;2024-02-14T17:21:19;54.55;;;28.42;;
20443;SDS011;10381;53.730;10.010;2024-02-14T17:25:20;53.63;;;27.37;;
20443;SDS011;10381;53.730;10.010;2024-02-14T17:29:20;45.60;;;28.75;;
20443;SDS011;10381;53.730;10.010;2024-02-14T17:33:20;54.92;;;31.25;;
20443;SDS011;10381;53.730;10.010;2024-02-14T17:37:21;45.00;;;30.90;;
20443;SDS011;10381;53.730;10.010;2024-02-14T17:41:21;47.43;;;29.83;;
20443;SDS011;10381;53.730;10.010;2024-02-14T17:45:21;56.40;;;30.27;;
20443;SDS011;10381;53.730;10.010;2024-02-14T17:49:22;46.90;;;30.83;;
20443;SDS011;10381;53.730;10.010;2024-02-14T17:53:23;53.70;;;32.28;;
20443;SDS011;10381;53.730;10.010;2024-02-14T17:57:27;43.22;;;30.80;;
20443;SDS011;10381;53.730;10.010;2024-02-14T18:01:27;49.17;;;28.20;;
20443;SDS011;10381;53.730;10.010;2024-02-14T18:05:27;42.15;;;29.92;;
20443;SDS011;10381;53.730;10.010;2024-02-14T18:09:27;46.17;;;29.43;;
20443;SDS011;10381;53.730;10.010;2024-02-14T18:13:28;45.10;;;26.27;;
20443;SDS011;10381;53.730;10.010;2024-02-14T18:17:28;45.37;;;28.73;;
20443;SDS011;10381;53.730;10.010;2024-02-14T18:21:29;41.13;;;27.95;;
20443;SDS011;10381;53.730;10.010;2024-02-14T18:25:29;43.73;;;29.70;;
20443;SDS011;10381;53.730;10.010;2024-02-14T18:29:29;42.95;;;27.42;;
20443;SDS011;10381;53.730;10.010;2024-02-14T18:33:30;50.25;;;27.63;;
20443;SDS011;10381;53.730;10.010;2024-02-14T18:37:32;55.25;;;29.48;;
20443;SDS011;10381;53.730;10.010;2024-02-14T18:41:32;45.23;;;27.37;;
20443;SDS011;10381;53.730;10.010;2024-02-14T18:45:34;43.60;;;25.70;;
20443;SDS011;10381;53.730;10.010;2024-02-14T18:49:34;39.73;;;26.47;;
20443;SDS011;10381;53.730;10.010;2024-02-14T18:53:36;41.92;;;25.23;;
20443;SDS011;10381;53.730;10.010;2024-02-14T18:57:36;37.07;;;26.30;;
20443;SDS011;10381;53.730;10.010;2024-02-14T19:01:37;36.43;;;26.20;;
20443;SDS011;10381;53.730;10.010;2024-02-14T19:05:38;40.40;;;27.25;;
20443;SDS011;10381;53.730;10.010;2024-02-14T19:09:38;32.67;;;25.30;;
20443;SDS011;10381;53.730;10.010;2024-02-14T19:13:39;41.85;;;27.33;;
20443;SDS011;10381;53.730;10.010;2024-02-14T19:17:39;37.60;;;26.03;;
20443;SDS011;10381;53.730;10.010;2024-02-14T19:21:40;52.17;;;29.98;;
20443;SDS011;10381;53.730;10.010;2024-02-14T19:25:41;38.63;;;25.40;;
20443;SDS011;10381;53.730;10.010;2024-02-14T19:29:41;41.47;;;27.03;;
20443;SDS011;10381;53.730;10.010;2024-02-14T19:33:41;51.40;;;28.43;;
20443;SDS011;10381;53.730;10.010;2024-02-14T19:37:42;44.50;;;29.50;;
20443;SDS011;10381;53.730;10.010;2024-02-14T19:41:43;54.10;;;28.73;;
20443;SDS011;10381;53.730;10.010;2024-02-14T19:45:43;44.30;;;27.38;;
20443;SDS011;10381;53.730;10.010;2024-02-14T19:49:43;50.77;;;29.30;;
20443;SDS011;10381;53.730;10.010;2024-02-14T19:53:44;56.60;;;30.57;;
20443;SDS011;10381;53.730;10.010;2024-02-14T19:57:44;58.53;;;31.17;;
20443;SDS011;10381;53.730;10.010;2024-02-14T20:01:44;43.73;;;29.87;;
20443;SDS011;10381;53.730;10.010;2024-02-14T20:05:45;61.25;;;32.60;;
20443;SDS011;10381;53.730;10.010;2024-02-14T20:09:46;52.55;;;32.05;;
20443;SDS011;10381;53.730;10.010;2024-02-14T20:13:47;55.20;;;33.77;;
20443;SDS011;10381;53.730;10.010;2024-02-14T20:17:47;57.83;;;34.97;;
20443;SDS011;10381;53.730;10.010;2024-02-14T20:21:48;56.00;;;35.58;;
20443;SDS011;10381;53.730;10.010;2024-02-14T20:25:50;59.40;;;35.28;;
20443;SDS011;10381;53.730;10.010;2024-02-14T20:29:51;70.82;;;38.00;;
20443;SDS011;10381;53.730;10.010;2024-02-14T20:33:51;65.22;;;41.65;;
20443;SDS011;10381;53.730;10.010;2024-02-14T20:37:52;80.20;;;43.38;;
20443;SDS011;10381;53.730;10.010;2024-02-14T20:41:52;88.10;;;45.93;;
20443;SDS011;10381;53.730;10.010;2024-02-14T20:45:53;89.00;;;49.70;;
20443;SDS011;10381;53.730;10.010;2024-02-14T20:49:53;85.90;;;54.47;;
20443;SDS011;10381;53.730;10.010;2024-02-14T20:53:56;111.30;;;57.53;;
20443;SDS011;10381;53.730;10.010;2024-02-14T20:57:56;113.60;;;59.77;;
20443;SDS011;10381;53.730;10.010;2024-02-14T21:01:56;104.25;;;62.58;;
20443;SDS011;10381;53.730;10.010;2024-02-14T21:05:58;117.80;;;59.78;;
20443;SDS011;10381;53.730;10.010;2024-02-14T21:09:58;109.87;;;62.43;;
20443;SDS011;10381;53.730;10.010;2024-02-14T21:13:58;111.53;;;65.47;;
20443;SDS011;10381;53.730;10.010;2024-02-14T21:17:59;112.80;;;63.80;;
20443;SDS011;10381;53.730;10.010;2024-02-14T21:21:59;128.60;;;70.60;;
20443;SDS011;10381;53.730;10.010;2024-02-14T21:25:59;126.57;;;72.20;;
20443;SDS011;10381;53.730;10.010;2024-02-14T21:30:00;129.50;;;74.93;;
20443;SDS011;10381;53.730;10.010;2024-02-14T21:34:00;137.97;;;81.20;;
20443;SDS011;10381;53.730;10.010;2024-02-14T21:38:02;129.43;;;80.53;;
20443;SDS011;10381;53.730;10.010;2024-02-14T21:42:03;128.60;;;76.55;;
20443;SDS011;10381;53.730;10.010;2024-02-14T21:46:08;132.75;;;74.90;;
20443;SDS011;10381;53.730;10.010;2024-02-14T21:50:09;133.10;;;75.53;;
20443;SDS011;10381;53.730;10.010;2024-02-14T21:54:10;127.63;;;72.78;;
20443;SDS011;10381;53.730;10.010;2024-02-14T21:58:10;134.87;;;76.70;;
20443;SDS011;10381;53.730;10.010;2024-02-14T22:02:10;133.70;;;72.67;;
20443;SDS011;10381;53.730;10.010;2024-02-14T22:06:11;126.07;;;69.57;;
20443;SDS011;10381;53.730;10.010;2024-02-14T22:10:11;129.90;;;63.73;;
20443;SDS011;10381;53.730;10.010;2024-02-14T22:14:11;134.27;;;67.80;;
20443;SDS011;10381;53.730;10.010;2024-02-14T22:18:12;121.35;;;66.88;;
20443;SDS011;10381;53.730;10.010;2024-02-14T22:22:12;118.70;;;70.90;;
20443;SDS011;10381;53.730;10.010;2024-02-14T22:26:14;121.15;;;66.35;;
20443;SDS011;10381;53.730;10.010;2024-02-14T22:30:14;119.95;;;66.55;;
20443;SDS011;10381;53.730;10.010;2024-02-14T22:34:14;121.68;;;67.40;;
20443;SDS011;10381;53.730;10.010;2024-02-14T22:38:15;110.43;;;64.78;;
20443;SDS011;10381;53.730;10.010;2024-02-14T22:42:15;112.47;;;69.33;;
20443;SDS011;10381;53.730;10.010;2024-02-14T22:46:16;127.43;;;68.57;;
20443;SDS011;10381;53.730;10.010;2024-02-14T22:50:16;122.10;;;73.75;;
20443;SDS011;10381;53.730;10.010;2024-02-14T22:54:17;116.60;;;76.73;;
20443;SDS011;10381;53.730;10.010;2024-02-14T22:58:18;127.00;;;76.65;;
20443;SDS011;10381;53.730;10.010;2024-02-14T23:02:19;131.87;;;73.13;;
20443;SDS011;10381;53.730;10.010;2024-02-14T23:06:19;112.63;;;71.22;;
20443;SDS011;10381;53.730;10.010;2024-02-14T23:10:19;132.80;;;70.37;;